sensor_id;sensor_type;location;lat;lon;timestamp;P1;durP1;ratioP1;P2;durP2;ratioP2
50012;SDS011;35901;48.694;9.476;2023-08-01T00:00:47;4.10;;;3.70;;
50012;SDS011;35901;48.694;9.476;2023-08-01T00:03:13;4.13;;;3.70;;
50012;SDS011;35901;48.694;9.476;2023-08-01T00:05:39;4.03;;;3.43;;
50012;SDS011;35901;48.694;9.476;2023-08-01T00:08:09;4.13;;;3.70;;
50012;SDS011;35901;48.694;9.476;2023-08-01T00:10:39;5.77;;;3.40;;
50012;SDS011;35901;48.694;9.476;2023-08-01T00:13:08;4.00;;;3.47;;
50012;SDS011;35901;48.694;9.476;2023-08-01T00:15:34;4.20;;;3.80;;
50012;SDS011;35901;48.694;9.476;2023-08-01T00:18:00;4.10;;;3.80;;
50012;SDS011;35901;48.694;9.476;2023-08-01T00:20:25;4.27;;;3.87;;
50012;SDS011;35901;48.694;9.476;2023-08-01T00:22:51;5.13;;;3.70;;
50012;SDS011;35901;48.694;9.476;2023-08-01T00:25:17;4.97;;;3.73;;
50012;SDS011;35901;48.694;9.476;2023-08-01T00:27:43;4.10;;;3.67;;
50012;SDS011;35901;48.694;9.476;2023-08-01T00:30:09;4.40;;;4.00;;
50012;SDS011;35901;48.694;9.476;2023-08-01T00:32:35;4.30;;;3.90;;
50012;SDS011;35901;48.694;9.476;2023-08-01T00:35:02;6.93;;;3.87;;
50012;SDS011;35901;48.694;9.476;2023-08-01T00:37:28;4.13;;;3.63;;
50012;SDS011;35901;48.694;9.476;2023-08-01T00:39:53;4.40;;;4.00;;
50012;SDS011;35901;48.694;9.476;2023-08-01T00:42:19;4.37;;;3.97;;
50012;SDS011;35901;48.694;9.476;2023-08-01T00:44:45;4.00;;;3.60;;
50012;SDS011;35901;48.694;9.476;2023-08-01T00:47:13;4.90;;;4.17;;
50012;SDS011;35901;48.694;9.476;2023-08-01T00:49:39;6.83;;;3.93;;
50012;SDS011;35901;48.694;9.476;2023-08-01T00:52:06;4.57;;;3.87;;
50012;SDS011;35901;48.694;9.476;2023-08-01T00:54:33;3.93;;;3.57;;
50012;SDS011;35901;48.694;9.476;2023-08-01T00:57:04;5.83;;;4.20;;
50012;SDS011;35901;48.694;9.476;2023-08-01T00:59:30;6.10;;;4.50;;
50012;SDS011;35901;48.694;9.476;2023-08-01T01:01:57;4.93;;;4.43;;
50012;SDS011;35901;48.694;9.476;2023-08-01T01:04:24;3.83;;;3.53;;
50012;SDS011;35901;48.694;9.476;2023-08-01T01:06:54;5.37;;;4.20;;
50012;SDS011;35901;48.694;9.476;2023-08-01T01:09:27;4.97;;;4.40;;
50012;SDS011;35901;48.694;9.476;2023-08-01T01:11:54;4.83;;;4.37;;
50012;SDS011;35901;48.694;9.476;2023-08-01T01:14:21;5.07;;;3.93;;
50012;SDS011;35901;48.694;9.476;2023-08-01T01:16:46;4.47;;;3.80;;
50012;SDS011;35901;48.694;9.476;2023-08-01T01:19:12;5.00;;;3.97;;
50012;SDS011;35901;48.694;9.476;2023-08-01T01:21:38;4.13;;;3.80;;
50012;SDS011;35901;48.694;9.476;2023-08-01T01:24:05;4.90;;;4.50;;
50012;SDS011;35901;48.694;9.476;2023-08-01T01:26:33;5.30;;;4.23;;
50012;SDS011;35901;48.694;9.476;2023-08-01T01:29:00;5.03;;;4.57;;
50012;SDS011;35901;48.694;9.476;2023-08-01T01:31:28;4.77;;;4.13;;
50012;SDS011;35901;48.694;9.476;2023-08-01T01:33:54;4.20;;;3.90;;
50012;SDS011;35901;48.694;9.476;2023-08-01T01:36:20;6.00;;;4.70;;
50012;SDS011;35901;48.694;9.476;2023-08-01T01:38:46;5.50;;;4.57;;
50012;SDS011;35901;48.694;9.476;2023-08-01T01:41:11;5.00;;;4.50;;
50012;SDS011;35901;48.694;9.476;2023-08-01T01:43:37;5.70;;;5.10;;
50012;SDS011;35901;48.694;9.476;2023-08-01T01:46:12;5.33;;;4.80;;
50012;SDS011;35901;48.694;9.476;2023-08-01T01:48:37;5.63;;;4.70;;
50012;SDS011;35901;48.694;9.476;2023-08-01T01:51:03;5.27;;;4.77;;
50012;SDS011;35901;48.694;9.476;2023-08-01T01:53:29;7.97;;;5.27;;
50012;SDS011;35901;48.694;9.476;2023-08-01T01:55:54;6.73;;;5.23;;
50012;SDS011;35901;48.694;9.476;2023-08-01T01:58:20;5.93;;;4.93;;
50012;SDS011;35901;48.694;9.476;2023-08-01T02:00:45;6.37;;;5.47;;
50012;SDS011;35901;48.694;9.476;2023-08-01T02:03:11;7.17;;;5.20;;
50012;SDS011;35901;48.694;9.476;2023-08-01T02:05:39;5.00;;;4.50;;
50012;SDS011;35901;48.694;9.476;2023-08-01T02:08:05;5.40;;;4.90;;
50012;SDS011;35901;48.694;9.476;2023-08-01T02:10:31;6.37;;;5.47;;
50012;SDS011;35901;48.694;9.476;2023-08-01T02:12:56;6.03;;;4.93;;
50012;SDS011;35901;48.694;9.476;2023-08-01T02:15:22;4.90;;;4.50;;
50012;SDS011;35901;48.694;9.476;2023-08-01T02:17:48;5.47;;;4.80;;
50012;SDS011;35901;48.694;9.476;2023-08-01T02:20:14;5.87;;;4.93;;
50012;SDS011;35901;48.694;9.476;2023-08-01T02:22:39;4.87;;;4.30;;
50012;SDS011;35901;48.694;9.476;2023-08-01T02:25:05;5.50;;;4.57;;
50012;SDS011;35901;48.694;9.476;2023-08-01T02:27:31;4.70;;;4.30;;
50012;SDS011;35901;48.694;9.476;2023-08-01T02:29:56;5.07;;;4.57;;
50012;SDS011;35901;48.694;9.476;2023-08-01T02:32:22;5.77;;;3.90;;
50012;SDS011;35901;48.694;9.476;2023-08-01T02:34:48;4.57;;;4.13;;
50012;SDS011;35901;48.694;9.476;2023-08-01T02:37:13;5.13;;;4.17;;
50012;SDS011;35901;48.694;9.476;2023-08-01T02:39:39;4.80;;;4.30;;
50012;SDS011;35901;48.694;9.476;2023-08-01T02:42:05;5.70;;;4.33;;
50012;SDS011;35901;48.694;9.476;2023-08-01T02:44:31;5.83;;;4.37;;
50012;SDS011;35901;48.694;9.476;2023-08-01T02:46:57;5.23;;;4.40;;
50012;SDS011;35901;48.694;9.476;2023-08-01T02:49:23;4.50;;;3.83;;
50012;SDS011;35901;48.694;9.476;2023-08-01T02:51:49;5.77;;;4.33;;
50012;SDS011;35901;48.694;9.476;2023-08-01T02:54:14;4.43;;;4.03;;
50012;SDS011;35901;48.694;9.476;2023-08-01T02:56:40;6.43;;;4.50;;
50012;SDS011;35901;48.694;9.476;2023-08-01T02:59:06;4.73;;;4.30;;
50012;SDS011;35901;48.694;9.476;2023-08-01T03:01:37;6.03;;;4.53;;
50012;SDS011;35901;48.694;9.476;2023-08-01T03:04:03;4.53;;;4.13;;
50012;SDS011;35901;48.694;9.476;2023-08-01T03:06:31;5.50;;;4.97;;
50012;SDS011;35901;48.694;9.476;2023-08-01T03:08:57;6.43;;;4.57;;
50012;SDS011;35901;48.694;9.476;2023-08-01T03:11:24;4.70;;;4.30;;
50012;SDS011;35901;48.694;9.476;2023-08-01T03:13:49;5.70;;;4.37;;
50012;SDS011;35901;48.694;9.476;2023-08-01T03:16:17;6.30;;;4.83;;
50012;SDS011;35901;48.694;9.476;2023-08-01T03:18:43;4.40;;;4.00;;
50012;SDS011;35901;48.694;9.476;2023-08-01T03:21:09;4.83;;;4.37;;
50012;SDS011;35901;48.694;9.476;2023-08-01T03:23:35;5.07;;;4.53;;
50012;SDS011;35901;48.694;9.476;2023-08-01T03:26:01;5.40;;;4.40;;
50012;SDS011;35901;48.694;9.476;2023-08-01T03:28:26;5.47;;;4.10;;
50012;SDS011;35901;48.694;9.476;2023-08-01T03:30:52;4.67;;;4.27;;
50012;SDS011;35901;48.694;9.476;2023-08-01T03:33:19;4.63;;;4.13;;
50012;SDS011;35901;48.694;9.476;2023-08-01T03:35:45;4.70;;;4.30;;
50012;SDS011;35901;48.694;9.476;2023-08-01T03:38:11;4.93;;;4.50;;
50012;SDS011;35901;48.694;9.476;2023-08-01T03:40:38;4.63;;;4.13;;
50012;SDS011;35901;48.694;9.476;2023-08-01T03:43:04;5.33;;;4.13;;
50012;SDS011;35901;48.694;9.476;2023-08-01T03:45:32;5.10;;;3.87;;
50012;SDS011;35901;48.694;9.476;2023-08-01T03:47:58;4.97;;;4.03;;
50012;SDS011;35901;48.694;9.476;2023-08-01T03:50:24;5.13;;;4.30;;
50012;SDS011;35901;48.694;9.476;2023-08-01T03:52:49;4.83;;;3.80;;
50012;SDS011;35901;48.694;9.476;2023-08-01T03:55:15;5.47;;;4.03;;
50012;SDS011;35901;48.694;9.476;2023-08-01T03:57:41;4.00;;;3.60;;
50012;SDS011;35901;48.694;9.476;2023-08-01T04:00:08;3.93;;;3.50;;
50012;SDS011;35901;48.694;9.476;2023-08-01T04:02:43;5.37;;;3.70;;
50012;SDS011;35901;48.694;9.476;2023-08-01T04:05:09;5.63;;;3.67;;
50012;SDS011;35901;48.694;9.476;2023-08-01T04:07:36;4.57;;;3.77;;
50012;SDS011;35901;48.694;9.476;2023-08-01T04:10:02;4.50;;;4.10;;
50012;SDS011;35901;48.694;9.476;2023-08-01T04:12:29;4.27;;;3.53;;
50012;SDS011;35901;48.694;9.476;2023-08-01T04:14:57;5.43;;;3.97;;
50012;SDS011;35901;48.694;9.476;2023-08-01T04:17:23;4.60;;;3.70;;
50012;SDS011;35901;48.694;9.476;2023-08-01T04:19:49;4.30;;;3.63;;
50012;SDS011;35901;48.694;9.476;2023-08-01T04:22:15;6.80;;;4.17;;
50012;SDS011;35901;48.694;9.476;2023-08-01T04:24:41;4.50;;;3.80;;
50012;SDS011;35901;48.694;9.476;2023-08-01T04:27:06;5.03;;;4.00;;
50012;SDS011;35901;48.694;9.476;2023-08-01T04:29:32;5.50;;;3.93;;
50012;SDS011;35901;48.694;9.476;2023-08-01T04:31:57;5.23;;;3.80;;
50012;SDS011;35901;48.694;9.476;2023-08-01T04:34:23;4.27;;;3.47;;
50012;SDS011;35901;48.694;9.476;2023-08-01T04:36:49;3.83;;;3.33;;
50012;SDS011;35901;48.694;9.476;2023-08-01T04:39:14;5.13;;;3.83;;
50012;SDS011;35901;48.694;9.476;2023-08-01T04:41:40;3.97;;;3.40;;
50012;SDS011;35901;48.694;9.476;2023-08-01T04:44:06;3.90;;;3.50;;
50012;SDS011;35901;48.694;9.476;2023-08-01T04:46:31;3.70;;;3.30;;
50012;SDS011;35901;48.694;9.476;2023-08-01T04:51:48;4.20;;;3.40;;
50012;SDS011;35901;48.694;9.476;2023-08-01T04:54:15;3.60;;;3.30;;
50012;SDS011;35901;48.694;9.476;2023-08-01T04:56:40;4.03;;;3.63;;
50012;SDS011;35901;48.694;9.476;2023-08-01T04:59:06;5.83;;;3.57;;
50012;SDS011;35901;48.694;9.476;2023-08-01T05:01:32;3.70;;;3.30;;
50012;SDS011;35901;48.694;9.476;2023-08-01T05:03:58;7.10;;;3.47;;
50012;SDS011;35901;48.694;9.476;2023-08-01T05:06:24;4.00;;;2.93;;
50012;SDS011;35901;48.694;9.476;2023-08-01T05:08:49;6.13;;;3.30;;
50012;SDS011;35901;48.694;9.476;2023-08-01T05:11:15;4.33;;;3.60;;
50012;SDS011;35901;48.694;9.476;2023-08-01T05:13:40;3.87;;;3.43;;
50012;SDS011;35901;48.694;9.476;2023-08-01T05:16:06;4.77;;;3.87;;
50012;SDS011;35901;48.694;9.476;2023-08-01T05:18:32;3.60;;;3.17;;
50012;SDS011;35901;48.694;9.476;2023-08-01T05:20:57;6.13;;;3.57;;
50012;SDS011;35901;48.694;9.476;2023-08-01T05:23:23;5.57;;;3.83;;
50012;SDS011;35901;48.694;9.476;2023-08-01T05:25:48;4.63;;;3.30;;
50012;SDS011;35901;48.694;9.476;2023-08-01T05:28:14;4.67;;;3.47;;
50012;SDS011;35901;48.694;9.476;2023-08-01T05:30:40;4.33;;;3.87;;
50012;SDS011;35901;48.694;9.476;2023-08-01T05:33:06;4.23;;;3.47;;
50012;SDS011;35901;48.694;9.476;2023-08-01T05:35:31;4.17;;;3.70;;
50012;SDS011;35901;48.694;9.476;2023-08-01T05:37:57;4.33;;;3.60;;
50012;SDS011;35901;48.694;9.476;2023-08-01T05:40:23;3.87;;;3.47;;
50012;SDS011;35901;48.694;9.476;2023-08-01T05:42:49;6.20;;;3.70;;
50012;SDS011;35901;48.694;9.476;2023-08-01T05:45:14;6.50;;;3.90;;
50012;SDS011;35901;48.694;9.476;2023-08-01T05:47:40;5.70;;;3.93;;
50012;SDS011;35901;48.694;9.476;2023-08-01T05:50:06;4.23;;;3.83;;
50012;SDS011;35901;48.694;9.476;2023-08-01T05:52:33;3.93;;;3.60;;
50012;SDS011;35901;48.694;9.476;2023-08-01T05:54:59;4.63;;;3.83;;
50012;SDS011;35901;48.694;9.476;2023-08-01T05:57:24;3.93;;;3.53;;
50012;SDS011;35901;48.694;9.476;2023-08-01T05:59:50;4.67;;;3.57;;
50012;SDS011;35901;48.694;9.476;2023-08-01T06:02:16;4.13;;;3.63;;
50012;SDS011;35901;48.694;9.476;2023-08-01T06:04:42;4.40;;;3.67;;
50012;SDS011;35901;48.694;9.476;2023-08-01T06:07:07;4.10;;;3.60;;
50012;SDS011;35901;48.694;9.476;2023-08-01T06:09:33;5.00;;;3.50;;
50012;SDS011;35901;48.694;9.476;2023-08-01T06:11:59;3.83;;;3.53;;
50012;SDS011;35901;48.694;9.476;2023-08-01T06:14:24;4.53;;;3.53;;
50012;SDS011;35901;48.694;9.476;2023-08-01T06:16:50;4.10;;;3.40;;
50012;SDS011;35901;48.694;9.476;2023-08-01T06:21:46;5.10;;;3.30;;
50012;SDS011;35901;48.694;9.476;2023-08-01T06:24:11;3.87;;;3.50;;
50012;SDS011;35901;48.694;9.476;2023-08-01T06:26:37;4.40;;;3.63;;
50012;SDS011;35901;48.694;9.476;2023-08-01T06:29:03;6.17;;;3.60;;
50012;SDS011;35901;48.694;9.476;2023-08-01T06:31:28;3.67;;;3.00;;
50012;SDS011;35901;48.694;9.476;2023-08-01T06:33:54;3.10;;;2.80;;
50012;SDS011;35901;48.694;9.476;2023-08-01T06:36:20;3.47;;;3.00;;
50012;SDS011;35901;48.694;9.476;2023-08-01T06:38:45;3.70;;;3.10;;
50012;SDS011;35901;48.694;9.476;2023-08-01T06:41:11;4.23;;;3.70;;
50012;SDS011;35901;48.694;9.476;2023-08-01T06:43:37;3.40;;;3.10;;
50012;SDS011;35901;48.694;9.476;2023-08-01T06:46:03;3.60;;;3.30;;
50012;SDS011;35901;48.694;9.476;2023-08-01T06:48:37;4.33;;;3.00;;
50012;SDS011;35901;48.694;9.476;2023-08-01T06:51:02;5.00;;;3.40;;
50012;SDS011;35901;48.694;9.476;2023-08-01T06:53:28;4.83;;;3.60;;
50012;SDS011;35901;48.694;9.476;2023-08-01T06:55:54;6.10;;;3.60;;
50012;SDS011;35901;48.694;9.476;2023-08-01T06:58:19;4.23;;;3.50;;
50012;SDS011;35901;48.694;9.476;2023-08-01T07:00:45;3.97;;;3.50;;
50012;SDS011;35901;48.694;9.476;2023-08-01T07:03:10;4.30;;;3.50;;
50012;SDS011;35901;48.694;9.476;2023-08-01T07:05:36;4.80;;;4.23;;
50012;SDS011;35901;48.694;9.476;2023-08-01T07:08:02;4.43;;;3.90;;
50012;SDS011;35901;48.694;9.476;2023-08-01T07:10:28;5.63;;;4.50;;
50012;SDS011;35901;48.694;9.476;2023-08-01T07:12:54;5.07;;;4.37;;
50012;SDS011;35901;48.694;9.476;2023-08-01T07:15:20;4.67;;;4.17;;
50012;SDS011;35901;48.694;9.476;2023-08-01T07:17:46;5.07;;;4.17;;
50012;SDS011;35901;48.694;9.476;2023-08-01T07:20:12;5.03;;;4.33;;
50012;SDS011;35901;48.694;9.476;2023-08-01T07:22:37;4.87;;;4.13;;
50012;SDS011;35901;48.694;9.476;2023-08-01T07:25:03;4.93;;;4.40;;
50012;SDS011;35901;48.694;9.476;2023-08-01T07:27:29;4.93;;;4.43;;
50012;SDS011;35901;48.694;9.476;2023-08-01T07:29:54;5.57;;;4.40;;
50012;SDS011;35901;48.694;9.476;2023-08-01T07:32:20;5.67;;;5.07;;
50012;SDS011;35901;48.694;9.476;2023-08-01T07:34:46;4.83;;;4.30;;
50012;SDS011;35901;48.694;9.476;2023-08-01T07:37:11;6.70;;;4.47;;
50012;SDS011;35901;48.694;9.476;2023-08-01T07:39:37;5.67;;;4.90;;
50012;SDS011;35901;48.694;9.476;2023-08-01T07:42:03;7.37;;;5.07;;
50012;SDS011;35901;48.694;9.476;2023-08-01T07:44:30;5.83;;;4.73;;
50012;SDS011;35901;48.694;9.476;2023-08-01T07:46:56;6.63;;;5.20;;
50012;SDS011;35901;48.694;9.476;2023-08-01T07:49:22;7.37;;;5.33;;
50012;SDS011;35901;48.694;9.476;2023-08-01T07:51:48;5.57;;;4.53;;
50012;SDS011;35901;48.694;9.476;2023-08-01T07:54:13;5.10;;;4.40;;
50012;SDS011;35901;48.694;9.476;2023-08-01T07:56:39;4.17;;;3.70;;
50012;SDS011;35901;48.694;9.476;2023-08-01T07:59:04;4.47;;;4.07;;
50012;SDS011;35901;48.694;9.476;2023-08-01T08:01:30;5.43;;;4.47;;
50012;SDS011;35901;48.694;9.476;2023-08-01T08:03:56;5.53;;;4.17;;
50012;SDS011;35901;48.694;9.476;2023-08-01T08:06:21;4.87;;;3.97;;
50012;SDS011;35901;48.694;9.476;2023-08-01T08:08:48;6.73;;;4.20;;
50012;SDS011;35901;48.694;9.476;2023-08-01T08:11:15;5.90;;;4.50;;
50012;SDS011;35901;48.694;9.476;2023-08-01T08:13:41;6.67;;;4.53;;
50012;SDS011;35901;48.694;9.476;2023-08-01T08:16:08;6.70;;;4.60;;
50012;SDS011;35901;48.694;9.476;2023-08-01T08:18:33;5.03;;;4.53;;
50012;SDS011;35901;48.694;9.476;2023-08-01T08:21:04;6.90;;;5.03;;
50012;SDS011;35901;48.694;9.476;2023-08-01T08:23:30;5.60;;;5.03;;
50012;SDS011;35901;48.694;9.476;2023-08-01T08:25:56;6.67;;;5.27;;
50012;SDS011;35901;48.694;9.476;2023-08-01T08:28:31;6.13;;;4.83;;
50012;SDS011;35901;48.694;9.476;2023-08-01T08:30:59;6.93;;;5.13;;
50012;SDS011;35901;48.694;9.476;2023-08-01T08:33:26;5.93;;;5.10;;
50012;SDS011;35901;48.694;9.476;2023-08-01T08:35:52;7.50;;;5.53;;
50012;SDS011;35901;48.694;9.476;2023-08-01T08:38:18;6.20;;;5.03;;
50012;SDS011;35901;48.694;9.476;2023-08-01T08:41:27;6.27;;;5.40;;
50012;SDS011;35901;48.694;9.476;2023-08-01T08:43:38;7.53;;;5.57;;
50012;SDS011;35901;48.694;9.476;2023-08-01T08:46:06;7.17;;;5.67;;
50012;SDS011;35901;48.694;9.476;2023-08-01T08:48:34;5.83;;;5.23;;
50012;SDS011;35901;48.694;9.476;2023-08-01T08:51:03;7.30;;;5.13;;
50012;SDS011;35901;48.694;9.476;2023-08-01T08:53:31;6.83;;;5.50;;
50012;SDS011;35901;48.694;9.476;2023-08-01T08:55:58;6.60;;;5.53;;
50012;SDS011;35901;48.694;9.476;2023-08-01T08:58:24;8.07;;;5.57;;
50012;SDS011;35901;48.694;9.476;2023-08-01T09:00:50;5.33;;;4.83;;
50012;SDS011;35901;48.694;9.476;2023-08-01T09:03:16;5.57;;;5.07;;
50012;SDS011;35901;48.694;9.476;2023-08-01T09:05:44;5.33;;;4.83;;
50012;SDS011;35901;48.694;9.476;2023-08-01T09:08:20;5.60;;;5.03;;
50012;SDS011;35901;48.694;9.476;2023-08-01T09:10:49;5.90;;;5.30;;
50012;SDS011;35901;48.694;9.476;2023-08-01T09:13:15;5.50;;;4.67;;
50012;SDS011;35901;48.694;9.476;2023-08-01T09:15:41;5.53;;;4.93;;
50012;SDS011;35901;48.694;9.476;2023-08-01T09:18:10;6.00;;;5.40;;
50012;SDS011;35901;48.694;9.476;2023-08-01T09:23:29;5.47;;;4.37;;
50012;SDS011;35901;48.694;9.476;2023-08-01T09:25:55;4.87;;;4.37;;
50012;SDS011;35901;48.694;9.476;2023-08-01T09:28:22;5.10;;;4.27;;
50012;SDS011;35901;48.694;9.476;2023-08-01T09:30:49;4.97;;;4.50;;
50012;SDS011;35901;48.694;9.476;2023-08-01T09:33:16;5.90;;;3.70;;
50012;SDS011;35901;48.694;9.476;2023-08-01T09:35:42;4.40;;;4.00;;
50012;SDS011;35901;48.694;9.476;2023-08-01T09:38:11;4.63;;;4.00;;
50012;SDS011;35901;48.694;9.476;2023-08-01T09:40:39;6.17;;;3.90;;
50012;SDS011;35901;48.694;9.476;2023-08-01T09:43:05;4.30;;;3.90;;
50012;SDS011;35901;48.694;9.476;2023-08-01T09:45:31;5.27;;;4.13;;
50012;SDS011;35901;48.694;9.476;2023-08-01T09:47:56;4.97;;;3.57;;
50012;SDS011;35901;48.694;9.476;2023-08-01T09:53:32;4.27;;;3.50;;
50012;SDS011;35901;48.694;9.476;2023-08-01T09:55:59;4.03;;;3.50;;
50012;SDS011;35901;48.694;9.476;2023-08-01T09:58:26;4.17;;;3.30;;
50012;SDS011;35901;48.694;9.476;2023-08-01T10:00:59;3.30;;;2.97;;
50012;SDS011;35901;48.694;9.476;2023-08-01T10:03:28;3.37;;;3.07;;
50012;SDS011;35901;48.694;9.476;2023-08-01T10:05:54;3.83;;;2.80;;
50012;SDS011;35901;48.694;9.476;2023-08-01T10:08:21;2.83;;;2.57;;
50012;SDS011;35901;48.694;9.476;2023-08-01T10:10:47;3.10;;;2.80;;
50012;SDS011;35901;48.694;9.476;2023-08-01T10:13:13;3.20;;;2.90;;
50012;SDS011;35901;48.694;9.476;2023-08-01T10:15:40;2.67;;;2.47;;
50012;SDS011;35901;48.694;9.476;2023-08-01T10:18:06;3.13;;;2.50;;
50012;SDS011;35901;48.694;9.476;2023-08-01T10:20:34;3.13;;;2.80;;
50012;SDS011;35901;48.694;9.476;2023-08-01T10:25:58;3.77;;;2.40;;
50012;SDS011;35901;48.694;9.476;2023-08-01T10:28:34;3.07;;;2.60;;
50012;SDS011;35901;48.694;9.476;2023-08-01T10:31:08;4.03;;;2.53;;
50012;SDS011;35901;48.694;9.476;2023-08-01T10:33:36;2.40;;;2.20;;
50012;SDS011;35901;48.694;9.476;2023-08-01T10:36:11;2.43;;;2.23;;
50012;SDS011;35901;48.694;9.476;2023-08-01T10:38:48;3.23;;;2.20;;
50012;SDS011;35901;48.694;9.476;2023-08-01T10:41:18;2.87;;;2.57;;
50012;SDS011;35901;48.694;9.476;2023-08-01T10:43:51;3.00;;;2.30;;
50012;SDS011;35901;48.694;9.476;2023-08-01T10:46:17;2.33;;;2.07;;
50012;SDS011;35901;48.694;9.476;2023-08-01T10:48:52;2.37;;;2.20;;
50012;SDS011;35901;48.694;9.476;2023-08-01T10:51:21;2.93;;;2.00;;
50012;SDS011;35901;48.694;9.476;2023-08-01T10:53:46;2.57;;;2.27;;
50012;SDS011;35901;48.694;9.476;2023-08-01T10:56:16;2.00;;;1.90;;
50012;SDS011;35901;48.694;9.476;2023-08-01T10:58:43;3.27;;;2.10;;
50012;SDS011;35901;48.694;9.476;2023-08-01T11:01:09;2.13;;;1.93;;
50012;SDS011;35901;48.694;9.476;2023-08-01T11:03:38;2.17;;;1.97;;
50012;SDS011;35901;48.694;9.476;2023-08-01T11:06:05;1.80;;;1.70;;
50012;SDS011;35901;48.694;9.476;2023-08-01T11:08:34;1.73;;;1.47;;
50012;SDS011;35901;48.694;9.476;2023-08-01T11:11:04;2.20;;;1.40;;
50012;SDS011;35901;48.694;9.476;2023-08-01T11:13:32;1.93;;;1.60;;
50012;SDS011;35901;48.694;9.476;2023-08-01T11:16:03;1.30;;;1.20;;
50012;SDS011;35901;48.694;9.476;2023-08-01T11:18:40;1.43;;;1.27;;
50012;SDS011;35901;48.694;9.476;2023-08-01T11:21:07;1.47;;;1.37;;
50012;SDS011;35901;48.694;9.476;2023-08-01T11:23:33;1.23;;;1.13;;
50012;SDS011;35901;48.694;9.476;2023-08-01T11:26:01;1.40;;;1.27;;
50012;SDS011;35901;48.694;9.476;2023-08-01T11:28:34;1.40;;;1.30;;
50012;SDS011;35901;48.694;9.476;2023-08-01T11:31:00;1.40;;;1.30;;
50012;SDS011;35901;48.694;9.476;2023-08-01T11:33:26;1.10;;;1.10;;
50012;SDS011;35901;48.694;9.476;2023-08-01T11:35:55;1.90;;;1.30;;
50012;SDS011;35901;48.694;9.476;2023-08-01T11:38:29;1.30;;;1.20;;
50012;SDS011;35901;48.694;9.476;2023-08-01T11:40:56;1.50;;;1.40;;
50012;SDS011;35901;48.694;9.476;2023-08-01T11:43:23;1.13;;;1.10;;
50012;SDS011;35901;48.694;9.476;2023-08-01T11:45:52;1.30;;;1.20;;
50012;SDS011;35901;48.694;9.476;2023-08-01T11:48:20;1.27;;;1.13;;
50012;SDS011;35901;48.694;9.476;2023-08-01T11:50:47;1.13;;;1.13;;
50012;SDS011;35901;48.694;9.476;2023-08-01T11:53:22;1.10;;;1.10;;
50012;SDS011;35901;48.694;9.476;2023-08-01T11:55:48;0.97;;;0.97;;
50012;SDS011;35901;48.694;9.476;2023-08-01T11:58:27;1.20;;;1.10;;
50012;SDS011;35901;48.694;9.476;2023-08-01T12:01:11;1.20;;;1.10;;
50012;SDS011;35901;48.694;9.476;2023-08-01T12:03:42;2.00;;;1.13;;
50012;SDS011;35901;48.694;9.476;2023-08-01T12:06:08;1.20;;;1.10;;
50012;SDS011;35901;48.694;9.476;2023-08-01T12:08:34;1.50;;;1.20;;
50012;SDS011;35901;48.694;9.476;2023-08-01T12:11:00;1.13;;;1.13;;
50012;SDS011;35901;48.694;9.476;2023-08-01T12:13:26;2.17;;;1.20;;
50012;SDS011;35901;48.694;9.476;2023-08-01T12:15:52;1.33;;;1.30;;
50012;SDS011;35901;48.694;9.476;2023-08-01T12:18:25;1.40;;;1.30;;
50012;SDS011;35901;48.694;9.476;2023-08-01T12:20:53;1.40;;;1.30;;
50012;SDS011;35901;48.694;9.476;2023-08-01T12:23:19;3.17;;;1.40;;
50012;SDS011;35901;48.694;9.476;2023-08-01T12:25:46;1.23;;;1.13;;
50012;SDS011;35901;48.694;9.476;2023-08-01T12:28:13;1.30;;;1.20;;
50012;SDS011;35901;48.694;9.476;2023-08-01T12:30:40;1.53;;;1.20;;
50012;SDS011;35901;48.694;9.476;2023-08-01T12:33:08;1.97;;;1.37;;
50012;SDS011;35901;48.694;9.476;2023-08-01T12:35:35;1.57;;;1.33;;
50012;SDS011;35901;48.694;9.476;2023-08-01T12:38:04;1.30;;;1.10;;
50012;SDS011;35901;48.694;9.476;2023-08-01T12:40:30;1.67;;;1.30;;
50012;SDS011;35901;48.694;9.476;2023-08-01T12:42:55;1.60;;;1.23;;
50012;SDS011;35901;48.694;9.476;2023-08-01T12:45:21;2.27;;;1.40;;
50012;SDS011;35901;48.694;9.476;2023-08-01T12:47:48;1.60;;;1.50;;
50012;SDS011;35901;48.694;9.476;2023-08-01T12:50:14;1.57;;;1.20;;
50012;SDS011;35901;48.694;9.476;2023-08-01T12:52:39;3.10;;;1.30;;
50012;SDS011;35901;48.694;9.476;2023-08-01T12:55:05;1.40;;;1.30;;
50012;SDS011;35901;48.694;9.476;2023-08-01T12:57:31;1.43;;;1.20;;
50012;SDS011;35901;48.694;9.476;2023-08-01T12:59:57;1.43;;;1.17;;
50012;SDS011;35901;48.694;9.476;2023-08-01T13:02:22;1.43;;;1.33;;
50012;SDS011;35901;48.694;9.476;2023-08-01T13:04:48;1.50;;;1.40;;
50012;SDS011;35901;48.694;9.476;2023-08-01T13:07:13;1.40;;;1.30;;
50012;SDS011;35901;48.694;9.476;2023-08-01T13:09:39;3.10;;;1.40;;
50012;SDS011;35901;48.694;9.476;2023-08-01T13:12:05;1.40;;;1.30;;
50012;SDS011;35901;48.694;9.476;2023-08-01T13:14:31;1.47;;;1.30;;
50012;SDS011;35901;48.694;9.476;2023-08-01T13:16:57;1.47;;;1.40;;
50012;SDS011;35901;48.694;9.476;2023-08-01T13:19:24;1.30;;;1.20;;
50012;SDS011;35901;48.694;9.476;2023-08-01T13:21:50;1.40;;;1.30;;
50012;SDS011;35901;48.694;9.476;2023-08-01T13:24:16;1.73;;;1.63;;
50012;SDS011;35901;48.694;9.476;2023-08-01T13:26:41;1.97;;;1.30;;
50012;SDS011;35901;48.694;9.476;2023-08-01T13:29:07;1.40;;;1.30;;
50012;SDS011;35901;48.694;9.476;2023-08-01T13:31:33;1.90;;;1.30;;
50012;SDS011;35901;48.694;9.476;2023-08-01T13:33:58;1.20;;;1.10;;
50012;SDS011;35901;48.694;9.476;2023-08-01T13:36:24;1.83;;;1.40;;
50012;SDS011;35901;48.694;9.476;2023-08-01T13:38:49;1.07;;;1.07;;
50012;SDS011;35901;48.694;9.476;2023-08-01T13:41:15;1.50;;;1.40;;
50012;SDS011;35901;48.694;9.476;2023-08-01T13:43:41;1.53;;;1.27;;
50012;SDS011;35901;48.694;9.476;2023-08-01T13:46:14;1.37;;;1.30;;
50012;SDS011;35901;48.694;9.476;2023-08-01T13:48:42;2.23;;;1.33;;
50012;SDS011;35901;48.694;9.476;2023-08-01T13:51:08;2.23;;;1.13;;
50012;SDS011;35901;48.694;9.476;2023-08-01T13:53:33;1.37;;;1.20;;
50012;SDS011;35901;48.694;9.476;2023-08-01T13:55:59;1.83;;;1.43;;
50012;SDS011;35901;48.694;9.476;2023-08-01T13:58:25;1.53;;;1.17;;
50012;SDS011;35901;48.694;9.476;2023-08-01T14:00:51;1.50;;;1.40;;
50012;SDS011;35901;48.694;9.476;2023-08-01T14:03:16;1.80;;;1.30;;
50012;SDS011;35901;48.694;9.476;2023-08-01T14:05:42;1.20;;;1.20;;
50012;SDS011;35901;48.694;9.476;2023-08-01T14:08:08;1.50;;;1.40;;
50012;SDS011;35901;48.694;9.476;2023-08-01T14:10:33;1.97;;;1.30;;
50012;SDS011;35901;48.694;9.476;2023-08-01T14:12:59;1.63;;;1.50;;
50012;SDS011;35901;48.694;9.476;2023-08-01T14:15:25;1.67;;;1.57;;
50012;SDS011;35901;48.694;9.476;2023-08-01T14:17:50;1.67;;;1.50;;
50012;SDS011;35901;48.694;9.476;2023-08-01T14:20:17;1.60;;;1.47;;
50012;SDS011;35901;48.694;9.476;2023-08-01T14:22:44;1.40;;;1.30;;
50012;SDS011;35901;48.694;9.476;2023-08-01T14:25:10;1.13;;;1.13;;
50012;SDS011;35901;48.694;9.476;2023-08-01T14:27:35;1.60;;;1.50;;
50012;SDS011;35901;48.694;9.476;2023-08-01T14:30:02;1.40;;;1.30;;
50012;SDS011;35901;48.694;9.476;2023-08-01T14:32:30;1.77;;;1.47;;
50012;SDS011;35901;48.694;9.476;2023-08-01T14:34:56;1.63;;;1.53;;
50012;SDS011;35901;48.694;9.476;2023-08-01T14:37:22;1.57;;;1.43;;
50012;SDS011;35901;48.694;9.476;2023-08-01T14:39:49;1.47;;;1.37;;
50012;SDS011;35901;48.694;9.476;2023-08-01T14:42:15;1.30;;;1.30;;
50012;SDS011;35901;48.694;9.476;2023-08-01T14:44:41;2.20;;;1.30;;
50012;SDS011;35901;48.694;9.476;2023-08-01T14:47:07;1.57;;;1.47;;
50012;SDS011;35901;48.694;9.476;2023-08-01T14:49:32;1.60;;;1.50;;
50012;SDS011;35901;48.694;9.476;2023-08-01T14:51:58;1.67;;;1.57;;
50012;SDS011;35901;48.694;9.476;2023-08-01T14:54:24;1.43;;;1.33;;
50012;SDS011;35901;48.694;9.476;2023-08-01T14:56:51;1.30;;;1.20;;
50012;SDS011;35901;48.694;9.476;2023-08-01T14:59:17;3.37;;;1.50;;